Terminal Aerodrome Forecast
Issued by NWS Bismarck, ND

Home | Current Version | Previous Version | Text Only | Print | Product List | Glossary On
Versions: 1 2 3 4 5 6 7 8 9 10 11 12 13 14 15 16 17 18 19
184
FTUS43 KBIS 281733
TAFISN
TAF
KISN 281733Z 2818/2918 07008KT P6SM BKN040
     FM282100 09005KT P6SM SCT120
     FM291300 16004KT P6SM FEW250=

USA.gov is the U.S. government's official web portal to all federal, state and local government web resources and services.